»·PEaware :: N232KS KRKS-KPDX

N232KS :: KRKS-KPDX

FLIGHT INFORMATION

Flight Status: Arrived
Operator: Privately registered:
United States
More flights under this callsign
Pilot: Tyler J. (19619)
Aircraft: CESSNA 550 CITATION 2/S2/BRAVO
(C550)
More flights by this aircraft type
Origin: KRKS Rock Springs-Sweetwater
United States
Destination: KPDX Portland Intl
United States
More flights between these airports :: More routes between these airports
Route: +OCS J20 PIH J54 BOI J15 IMB JOTBA HHOOD4
File this flight plan on PilotEdge
Remarks:
Altitude:
(Current/Filed)
34,000ft
Speed:
(Current/Filed)
430kts
Departed: 26-Sep-18 07:18 AM
Arrived: 26-Sep-18 09:12 AM
Distance/Time
Traveled:
633nm/1:53
Distance/Time
To Go:
Arrived

Flight Plot

Page will automatically refresh every two minutes.

Flight plan parsing failed; only flown route is shown


Map Options




Map Legend


Flown Route
Filed Route
Departure Airport
Arrival Airport
Navaid (VOR, NDB)
Fix

Horizontal Profiles

Position Reports

Time Latitude Longitude Heading Altitude Ground
Speed
26-Sep-18 06:58 41.598215 -109.074163 283 6763ft 0kts
26-Sep-18 06:59 41.598215 -109.074163 283 6763ft 0kts
26-Sep-18 07:00 41.598215 -109.074164 283 6763ft 0kts
26-Sep-18 07:01 41.598215 -109.074166 283 6763ft 0kts
26-Sep-18 07:02 41.598216 -109.074169 283 6763ft 0kts
26-Sep-18 07:03 41.598216 -109.074172 283 6763ft 0kts
26-Sep-18 07:04 41.598217 -109.074176 283 6763ft 0kts
26-Sep-18 07:05 41.598217 -109.074178 283 6763ft 0kts
26-Sep-18 07:06 41.598218 -109.074181 283 6763ft 0kts
26-Sep-18 07:07 41.598219 -109.074184 283 6763ft 0kts
26-Sep-18 07:08 41.598219 -109.074187 283 6763ft 0kts
26-Sep-18 07:09 41.598219 -109.074190 283 6763ft 0kts
26-Sep-18 07:10 41.598220 -109.074192 283 6763ft 0kts
26-Sep-18 07:11 41.598220 -109.074195 283 6763ft 0kts
26-Sep-18 07:12 41.598221 -109.074198 283 6763ft 0kts
26-Sep-18 07:13 41.598221 -109.074201 283 6763ft 0kts
26-Sep-18 07:14 41.598212 -109.074323 242 6763ft 5kts
26-Sep-18 07:15 41.596095 -109.068643 98 6763ft 26kts
26-Sep-18 07:16 41.595743 -109.066157 125 6763ft 4kts
26-Sep-18 07:17 41.594104 -109.057524 102 6763ft 27kts
26-Sep-18 07:18 41.592872 -109.050452 103 6763ft 13kts
26-Sep-18 07:19 41.591476 -109.047101 285 6763ft 6kts
26-Sep-18 07:20 41.597557 -109.080964 283 7679ft 135kts
26-Sep-18 07:21 41.611138 -109.132195 306 10103ft 151kts
26-Sep-18 07:22 41.646787 -109.176988 317 11977ft 197kts
26-Sep-18 07:23 41.675208 -109.240100 296 14458ft 208kts
26-Sep-18 07:24 41.705943 -109.324716 296 16002ft 274kts
26-Sep-18 07:25 41.739625 -109.417748 296 18586ft 282kts
26-Sep-18 07:26 41.774225 -109.513614 296 20959ft 289kts
26-Sep-18 07:27 41.809571 -109.611809 296 23074ft 295kts
26-Sep-18 07:28 41.845518 -109.711857 297 24891ft 302kts
26-Sep-18 07:29 41.882316 -109.814373 297 26514ft 306kts
26-Sep-18 07:30 41.919500 -109.918045 298 27977ft 310kts
26-Sep-18 07:31 41.959122 -110.027966 298 28384ft 350kts
26-Sep-18 07:32 42.002745 -110.149045 298 29607ft 346kts
26-Sep-18 07:33 42.035309 -110.265488 290 31653ft 330kts
26-Sep-18 07:34 42.063911 -110.379709 302 33486ft 305kts
26-Sep-18 07:35 42.103774 -110.481256 303 34422ft 313kts
26-Sep-18 07:36 42.149425 -110.589424 307 34092ft 347kts
26-Sep-18 07:37 42.202488 -110.698686 309 34434ft 351kts
26-Sep-18 07:38 42.239857 -110.822739 288 34426ft 378kts
26-Sep-18 07:39 42.270238 -110.953853 295 34662ft 372kts
26-Sep-18 07:40 42.311240 -111.082509 301 34549ft 375kts
26-Sep-18 07:41 42.357677 -111.209061 301 34469ft 376kts
26-Sep-18 07:42 42.399036 -111.339654 299 34381ft 378kts
26-Sep-18 07:43 42.441948 -111.468960 300 34428ft 374kts
26-Sep-18 07:44 42.489049 -111.594501 305 34546ft 367kts
26-Sep-18 07:45 42.540064 -111.715527 306 34422ft 371kts
26-Sep-18 07:46 42.587926 -111.839848 301 34448ft 372kts
26-Sep-18 07:47 42.630278 -111.969327 298 34385ft 375kts
26-Sep-18 07:48 42.672131 -112.098741 300 34393ft 373kts
26-Sep-18 07:49 42.714764 -112.227810 300 34370ft 374kts
26-Sep-18 07:50 42.755290 -112.358136 298 34444ft 374kts
26-Sep-18 07:51 42.800171 -112.485162 309 34242ft 371kts
26-Sep-18 07:52 42.853058 -112.604892 300 34478ft 371kts
26-Sep-18 07:53 42.887496 -112.739370 294 34478ft 378kts
26-Sep-18 07:54 42.917283 -112.877180 293 34358ft 380kts
26-Sep-18 07:55 42.945595 -113.012488 293 34358ft 380kts
26-Sep-18 07:56 42.974418 -113.151937 293 34358ft 380kts
26-Sep-18 07:57 43.002900 -113.290914 293 34358ft 380kts
26-Sep-18 07:58 43.031259 -113.430335 293 34358ft 381kts
26-Sep-18 07:59 43.059468 -113.570016 293 34358ft 381kts
26-Sep-18 08:00 43.087465 -113.709635 293 34358ft 381kts
26-Sep-18 08:01 43.115351 -113.849674 293 34358ft 381kts
26-Sep-18 08:02 43.142959 -113.989286 293 34358ft 381kts
26-Sep-18 08:03 43.170612 -114.130133 293 34358ft 382kts
26-Sep-18 08:04 43.198023 -114.270759 293 34358ft 382kts
26-Sep-18 08:05 43.225293 -114.411680 292 34358ft 382kts
26-Sep-18 08:06 43.252374 -114.552632 292 34358ft 382kts
26-Sep-18 08:07 43.279316 -114.693895 292 34359ft 382kts
26-Sep-18 08:08 43.306129 -114.835099 292 34359ft 382kts
26-Sep-18 08:09 43.333052 -114.976937 292 34359ft 382kts
26-Sep-18 08:10 43.359176 -115.114629 292 34359ft 382kts
26-Sep-18 08:11 43.386014 -115.256141 292 34359ft 382kts
26-Sep-18 08:12 43.412858 -115.397738 292 34359ft 382kts
26-Sep-18 08:13 43.439679 -115.539259 292 34359ft 382kts
26-Sep-18 08:14 43.466508 -115.680885 291 34359ft 382kts
26-Sep-18 08:15 43.493307 -115.822454 291 34359ft 382kts
26-Sep-18 08:16 43.520097 -115.964111 291 34359ft 382kts
26-Sep-18 08:17 43.546818 -116.105510 291 34360ft 381kts
26-Sep-18 08:18 43.573563 -116.247182 291 34360ft 381kts
26-Sep-18 08:19 43.600217 -116.388518 290 34360ft 380kts
26-Sep-18 08:20 43.626701 -116.529114 290 34360ft 379kts
26-Sep-18 08:21 43.653286 -116.670358 290 34360ft 379kts
26-Sep-18 08:22 43.679837 -116.811481 290 34360ft 379kts
26-Sep-18 08:23 43.701892 -116.928751 290 34360ft 379kts
26-Sep-18 08:24 43.732179 -117.089817 290 34360ft 380kts
26-Sep-18 08:25 43.754297 -117.207453 290 34360ft 380kts
26-Sep-18 08:26 43.785394 -117.372815 290 34360ft 380kts
26-Sep-18 08:27 43.812032 -117.514463 290 34360ft 381kts
26-Sep-18 08:28 43.836047 -117.631831 302 34357ft 373kts
26-Sep-18 08:29 43.905045 -117.734307 320 34366ft 364kts
26-Sep-18 08:30 43.980509 -117.828729 320 34366ft 365kts
26-Sep-18 08:31 44.054641 -117.925540 318 34367ft 366kts
26-Sep-18 08:32 44.121274 -118.033377 308 34367ft 370kts
26-Sep-18 08:33 44.174429 -118.157120 302 34367ft 374kts
26-Sep-18 08:34 44.220298 -118.287976 299 34367ft 376kts
26-Sep-18 08:35 44.263159 -118.421437 298 34367ft 377kts
26-Sep-18 08:36 44.304910 -118.556193 297 34368ft 378kts
26-Sep-18 08:37 44.346275 -118.691890 297 34368ft 379kts
26-Sep-18 08:38 44.387206 -118.827395 297 34368ft 379kts
26-Sep-18 08:39 44.427000 -118.960013 297 34361ft 380kts
26-Sep-18 08:40 44.467760 -119.096611 297 34386ft 380kts
26-Sep-18 08:41 44.508253 -119.233078 297 34383ft 379kts
26-Sep-18 08:42 44.548577 -119.369723 297 34374ft 379kts
26-Sep-18 08:43 44.589467 -119.506296 299 34360ft 379kts
26-Sep-18 08:44 44.632301 -119.645694 293 33109ft 401kts
26-Sep-18 08:45 44.690878 -119.776915 312 31713ft 396kts
26-Sep-18 08:46 44.764355 -119.892081 315 30316ft 396kts
26-Sep-18 08:47 44.838949 -120.006475 313 28918ft 390kts
26-Sep-18 08:48 44.910717 -120.117627 313 27512ft 377kts
26-Sep-18 08:49 44.980914 -120.227162 313 26113ft 376kts
26-Sep-18 08:50 45.050881 -120.336883 312 24713ft 371kts
26-Sep-18 08:51 45.117487 -120.441901 312 24327ft 349kts
26-Sep-18 08:52 45.177413 -120.551024 303 23392ft 357kts
26-Sep-18 08:53 45.227007 -120.674449 300 21891ft 359kts
26-Sep-18 08:54 45.274117 -120.797497 300 20394ft 354kts
26-Sep-18 08:55 45.317494 -120.911384 301 18967ft 314kts
26-Sep-18 08:56 45.357650 -121.016790 301 17652ft 297kts
26-Sep-18 08:57 45.396612 -121.119029 297 16353ft 291kts
26-Sep-18 08:58 45.430846 -121.224132 292 15051ft 296kts
26-Sep-18 08:59 45.455190 -121.336920 288 13758ft 300kts
26-Sep-18 09:00 45.477382 -121.447918 286 13209ft 317kts
26-Sep-18 09:01 45.502530 -121.571795 287 12017ft 320kts
26-Sep-18 09:02 45.524004 -121.693119 286 10799ft 307kts
26-Sep-18 09:03 45.537316 -121.812786 271 9552ft 307kts
26-Sep-18 09:04 45.538530 -121.926934 272 7775ft 263kts
26-Sep-18 09:05 45.535660 -122.026351 256 7008ft 239kts
26-Sep-18 09:06 45.505060 -122.110749 239 6316ft 223kts
26-Sep-18 09:07 45.476230 -122.188533 261 5351ft 219kts
26-Sep-18 09:08 45.480262 -122.271182 277 4831ft 206kts
26-Sep-18 09:09 45.497537 -122.348592 302 3995ft 224kts
26-Sep-18 09:10 45.529229 -122.426733 299 2394ft 213kts
26-Sep-18 09:11 45.551949 -122.485484 300 1613ft 172kts
26-Sep-18 09:12 45.572488 -122.538361 299 536ft 119kts
26-Sep-18 09:13 45.588226 -122.578644 297 33ft 50kts
26-Sep-18 09:14 45.589333 -122.583489 221 33ft 0kts
26-Sep-18 09:15 45.589321 -122.583503 220 33ft 1kts
26-Sep-18 09:16 45.588727 -122.583933 207 33ft 8kts
26-Sep-18 09:17 45.587514 -122.584273 272 33ft 0kts
26-Sep-18 09:18 45.587514 -122.584274 272 33ft 0kts
26-Sep-18 09:19 45.587514 -122.584274 272 33ft 0kts
26-Sep-18 09:20 45.587514 -122.584274 272 33ft 0kts
26-Sep-18 09:21 45.587514 -122.584274 272 33ft 0kts
26-Sep-18 09:22 45.587514 -122.584274 272 33ft 0kts
26-Sep-18 09:23 45.587514 -122.584274 272 33ft 0kts
26-Sep-18 09:24 45.587514 -122.584274 272 33ft 0kts
26-Sep-18 09:25 45.587514 -122.584274 272 33ft 0kts
26-Sep-18 09:26 45.587514 -122.584274 272 33ft 0kts
26-Sep-18 09:27 45.587514 -122.584274 272 33ft 0kts
26-Sep-18 09:28 45.587514 -122.584274 272 33ft 0kts

Navigation Log

Ident Type
Flight plan parsing failed, navigation log unavailable